createdAt,value
2017-12-12T00:00:26.515Z,4.20
2017-12-12T00:02:27.694Z,4.20
2017-12-12T00:04:28.892Z,4.10
2017-12-12T00:06:29.890Z,4.10
2017-12-12T00:08:30.863Z,4.00
2017-12-12T00:10:33.394Z,4.10
2017-12-12T00:12:34.883Z,4.10
2017-12-12T00:14:35.876Z,4.10
2017-12-12T00:16:37.710Z,4.00
2017-12-12T00:18:38.708Z,4.10
2017-12-12T00:20:39.694Z,4.00
2017-12-12T00:22:41.617Z,4.00
2017-12-12T00:24:42.590Z,4.00
2017-12-12T00:26:44.522Z,4.00
2017-12-12T00:28:45.604Z,4.10
2017-12-12T00:30:47.370Z,4.10
2017-12-12T00:32:49.413Z,4.10
2017-12-12T00:34:50.410Z,4.10
2017-12-12T00:36:51.428Z,4.10
2017-12-12T00:38:52.416Z,4.00
2017-12-12T00:40:53.675Z,4.10
2017-12-12T00:42:54.813Z,4.00
2017-12-12T00:44:56.045Z,4.00
2017-12-12T00:46:57.325Z,4.00
2017-12-12T00:48:58.573Z,4.00
2017-12-12T00:50:59.764Z,4.00
2017-12-12T00:53:01.636Z,4.10
2017-12-12T00:55:02.631Z,4.10
2017-12-12T00:57:03.677Z,4.40
2017-12-12T00:59:04.709Z,4.40
2017-12-12T01:01:05.685Z,4.40
2017-12-12T01:03:06.851Z,4.40
2017-12-12T01:05:08.636Z,4.50
2017-12-12T01:07:10.100Z,4.50
2017-12-12T01:09:11.115Z,4.60
2017-12-12T01:11:12.235Z,4.70
2017-12-12T01:13:13.278Z,4.70
2017-12-12T01:15:14.351Z,4.70
2017-12-12T01:17:15.338Z,4.70
2017-12-12T01:19:16.347Z,4.60
2017-12-12T01:21:17.540Z,4.70
2017-12-12T01:23:18.556Z,4.60
2017-12-12T01:25:19.499Z,4.70
2017-12-12T01:27:20.500Z,4.70
2017-12-12T01:29:22.246Z,4.60
2017-12-12T01:31:23.227Z,4.60
2017-12-12T01:33:24.193Z,4.50
2017-12-12T01:35:25.191Z,4.60
2017-12-12T01:37:26.289Z,4.60
2017-12-12T01:39:28.116Z,4.50
2017-12-12T01:41:29.877Z,4.50
2017-12-12T01:43:30.870Z,4.40
2017-12-12T01:45:31.923Z,4.40
2017-12-12T01:47:32.941Z,4.50
2017-12-12T01:49:33.944Z,4.40
2017-12-12T01:51:34.990Z,4.40
2017-12-12T01:53:36.739Z,4.40
2017-12-12T01:55:37.722Z,4.30
2017-12-12T01:57:38.714Z,4.30
2017-12-12T01:59:39.703Z,4.30
2017-12-12T02:01:40.668Z,4.30
2017-12-12T02:03:42.427Z,4.30
2017-12-12T02:05:44.186Z,4.30
2017-12-12T02:07:45.174Z,4.30
2017-12-12T02:09:46.215Z,4.40
2017-12-12T02:11:47.575Z,4.30
2017-12-12T02:13:48.613Z,4.30
2017-12-12T02:15:50.535Z,4.40
2017-12-12T02:17:51.611Z,4.40
2017-12-12T02:19:53.441Z,4.50
2017-12-12T02:21:54.421Z,4.40
2017-12-12T02:23:57.129Z,4.50
2017-12-12T02:25:58.131Z,4.50
2017-12-12T02:27:59.120Z,4.60
2017-12-12T02:30:00.281Z,4.50
2017-12-12T02:32:01.329Z,4.50
2017-12-12T02:34:02.349Z,4.40
2017-12-12T02:36:04.101Z,4.40
2017-12-12T02:38:05.953Z,4.40
2017-12-12T02:40:07.709Z,4.40
2017-12-12T02:42:08.671Z,4.40
2017-12-12T02:44:09.732Z,4.40
2017-12-12T02:46:11.542Z,4.30
2017-12-12T02:48:12.831Z,4.30
2017-12-12T02:50:13.822Z,4.30
2017-12-12T02:52:14.829Z,4.30
2017-12-12T02:54:15.823Z,4.30
2017-12-12T02:56:17.075Z,4.20
2017-12-12T02:58:18.120Z,4.10
2017-12-12T03:00:19.123Z,3.90
2017-12-12T03:02:20.184Z,3.80
2017-12-12T03:04:22.253Z,3.70
2017-12-12T03:06:23.243Z,3.60
2017-12-12T03:08:24.247Z,3.50
2017-12-12T03:10:25.227Z,3.40
2017-12-12T03:12:26.207Z,3.30
2017-12-12T03:14:27.252Z,3.20
2017-12-12T03:16:28.341Z,3.10
2017-12-12T03:18:30.108Z,2.80
2017-12-12T03:20:31.966Z,2.80
2017-12-12T03:22:33.068Z,2.80
2017-12-12T03:24:34.090Z,2.70
2017-12-12T03:26:35.186Z,2.60
2017-12-12T03:28:36.383Z,2.60
2017-12-12T03:30:37.415Z,2.40
2017-12-12T03:32:39.139Z,2.10
2017-12-12T03:34:40.280Z,2.10
2017-12-12T03:36:41.287Z,2.10
2017-12-12T03:38:42.376Z,1.90
2017-12-12T03:40:43.372Z,1.90
2017-12-12T03:42:44.378Z,1.80
2017-12-12T03:44:46.258Z,1.80
2017-12-12T03:46:47.325Z,1.70
2017-12-12T03:48:49.395Z,1.70
2017-12-12T03:50:50.603Z,1.60
2017-12-12T03:52:51.623Z,1.50
2017-12-12T03:54:52.730Z,1.50
2017-12-12T03:56:53.726Z,1.50
2017-12-12T03:58:54.839Z,1.50
2017-12-12T04:00:55.877Z,1.40
2017-12-12T04:02:56.872Z,1.40
2017-12-12T04:04:57.869Z,1.40
2017-12-12T04:06:58.993Z,1.40
2017-12-12T04:09:00.024Z,1.40
2017-12-12T04:11:01.042Z,1.40
2017-12-12T04:13:02.123Z,1.40
2017-12-12T04:15:03.215Z,1.30
2017-12-12T04:17:04.234Z,1.30
2017-12-12T04:19:05.440Z,1.30
2017-12-12T04:21:07.199Z,1.30
2017-12-12T04:23:08.243Z,1.30
2017-12-12T04:25:09.379Z,1.20
2017-12-12T04:27:10.368Z,1.20
2017-12-12T04:29:12.090Z,1.20
2017-12-12T04:31:13.378Z,1.20
2017-12-12T04:33:14.332Z,1.20
2017-12-12T04:35:15.316Z,1.20
2017-12-12T04:37:16.292Z,1.20
2017-12-12T04:39:17.281Z,1.20
2017-12-12T04:41:18.375Z,1.20
2017-12-12T04:43:19.428Z,1.20
2017-12-12T04:45:21.205Z,1.10
2017-12-12T04:47:22.232Z,1.10
2017-12-12T04:49:23.332Z,1.20
2017-12-12T04:51:25.172Z,1.20
2017-12-12T04:53:26.187Z,1.20
2017-12-12T04:55:27.131Z,1.20
2017-12-12T04:57:28.115Z,1.20
2017-12-12T04:59:29.156Z,1.20
2017-12-12T05:01:30.914Z,1.20
2017-12-12T05:03:31.876Z,1.20
2017-12-12T05:05:32.998Z,1.20
2017-12-12T05:07:34.737Z,1.20
2017-12-12T05:09:35.761Z,1.20
2017-12-12T05:11:36.871Z,1.20
2017-12-12T05:13:38.611Z,1.20
2017-12-12T05:15:39.569Z,1.20
2017-12-12T05:17:40.636Z,1.20
2017-12-12T05:19:42.360Z,1.20
2017-12-12T05:21:43.461Z,1.20
2017-12-12T05:23:44.452Z,1.20
2017-12-12T05:25:46.221Z,1.20
2017-12-12T05:27:47.194Z,1.20
2017-12-12T05:29:48.735Z,1.20
2017-12-12T05:31:49.761Z,1.20
2017-12-12T05:33:50.795Z,1.20
2017-12-12T05:35:51.820Z,1.20
2017-12-12T05:37:52.756Z,1.20
2017-12-12T05:39:54.639Z,1.30
2017-12-12T05:41:55.626Z,1.30
2017-12-12T05:43:56.681Z,1.20
2017-12-12T05:45:57.744Z,1.20
2017-12-12T05:47:59.487Z,1.30
2017-12-12T05:50:00.518Z,1.20
2017-12-12T05:52:01.620Z,1.30
2017-12-12T05:54:03.540Z,1.30
2017-12-12T05:56:04.598Z,1.30
2017-12-12T05:58:05.714Z,1.30
2017-12-12T06:00:06.881Z,1.30
2017-12-12T06:02:07.975Z,1.30
2017-12-12T06:04:09.091Z,1.30
2017-12-12T06:06:10.047Z,1.30
2017-12-12T06:08:11.157Z,1.30
2017-12-12T06:10:12.741Z,1.40
2017-12-12T06:12:13.719Z,1.40
2017-12-12T06:14:14.786Z,1.40
2017-12-12T06:16:15.815Z,1.40
2017-12-12T06:18:16.893Z,1.40
2017-12-12T06:20:17.873Z,1.40
2017-12-12T06:22:19.196Z,1.40
2017-12-12T06:24:20.277Z,1.40
2017-12-12T06:26:21.312Z,1.40
2017-12-12T06:28:22.365Z,1.40
2017-12-12T06:30:23.352Z,1.40
2017-12-12T06:32:24.363Z,1.40
2017-12-12T06:34:25.367Z,1.40
2017-12-12T06:36:27.074Z,1.50
2017-12-12T06:38:28.168Z,1.40
2017-12-12T06:40:29.202Z,1.50
2017-12-12T06:42:30.299Z,1.50
2017-12-12T06:44:31.283Z,1.50
2017-12-12T06:46:32.256Z,1.50
2017-12-12T06:48:33.432Z,1.50
2017-12-12T06:50:34.439Z,1.50
2017-12-12T06:52:36.298Z,1.60
2017-12-12T06:54:37.288Z,1.60
2017-12-12T06:56:38.303Z,1.60
2017-12-12T06:58:40.513Z,1.60
2017-12-12T07:00:46.834Z,1.60
2017-12-12T07:02:48.629Z,1.60
2017-12-12T07:04:49.791Z,1.60
2017-12-12T07:06:50.919Z,1.60
2017-12-12T07:08:52.116Z,1.60
2017-12-12T07:10:53.162Z,1.60
2017-12-12T07:12:55.782Z,1.60
2017-12-12T07:14:56.876Z,1.70
2017-12-12T07:16:57.901Z,1.60
2017-12-12T07:18:58.899Z,1.60
2017-12-12T07:21:00.247Z,1.70
2017-12-12T07:23:02.252Z,1.70
2017-12-12T07:25:03.389Z,1.70
2017-12-12T07:27:04.465Z,1.70
2017-12-12T07:29:05.603Z,1.70
2017-12-12T07:31:06.789Z,1.70
2017-12-12T07:33:08.744Z,1.70
2017-12-12T07:35:12.749Z,1.70
2017-12-12T07:37:13.793Z,1.70
2017-12-12T07:39:16.068Z,1.70
2017-12-12T07:41:17.134Z,1.70
2017-12-12T07:43:18.268Z,1.70
2017-12-12T07:45:19.239Z,1.80
2017-12-12T07:47:21.129Z,1.80
2017-12-12T07:49:22.127Z,1.80
2017-12-12T07:51:23.128Z,1.70
2017-12-12T07:53:24.167Z,1.80
2017-12-12T07:55:25.279Z,1.80
2017-12-12T07:57:27.177Z,1.80
2017-12-12T07:59:29.865Z,1.70
2017-12-12T08:01:30.847Z,1.70
2017-12-12T08:03:32.376Z,1.70
2017-12-12T08:05:33.689Z,1.70
2017-12-12T08:07:34.849Z,1.70
2017-12-12T08:09:35.979Z,1.70
2017-12-12T08:11:36.999Z,1.60
2017-12-12T08:13:38.000Z,1.60
2017-12-12T08:15:40.498Z,1.60
2017-12-12T08:17:41.544Z,1.60
2017-12-12T08:19:43.406Z,1.60
2017-12-12T08:21:44.359Z,1.60
2017-12-12T08:23:46.277Z,1.60
2017-12-12T08:25:47.269Z,1.60
2017-12-12T08:27:49.011Z,1.60
2017-12-12T08:29:50.011Z,1.60
2017-12-12T08:31:51.007Z,1.60
2017-12-12T08:33:52.005Z,1.60
2017-12-12T08:35:53.145Z,1.60
2017-12-12T08:37:54.174Z,1.60
2017-12-12T08:40:03.929Z,1.60
2017-12-12T08:42:05.064Z,1.60
2017-12-12T08:44:06.148Z,1.60
2017-12-12T08:46:09.566Z,1.50
2017-12-12T08:48:10.739Z,1.50
2017-12-12T08:52:22.853Z,1.50
2017-12-12T08:54:23.911Z,1.50
2017-12-12T08:56:24.891Z,1.60
2017-12-12T08:58:25.939Z,1.50
2017-12-12T09:00:26.994Z,1.60
2017-12-12T09:02:29.423Z,1.60
2017-12-12T09:04:30.544Z,1.50
2017-12-12T09:06:32.235Z,1.50
2017-12-12T09:08:33.322Z,1.50
2017-12-12T09:10:34.385Z,1.60
2017-12-12T09:12:35.387Z,1.60
2017-12-12T09:14:36.608Z,1.60
2017-12-12T09:16:37.600Z,1.50
2017-12-12T09:18:38.875Z,1.60
2017-12-12T09:20:40.080Z,1.60
2017-12-12T09:22:41.120Z,1.60
2017-12-12T09:24:43.184Z,1.60
2017-12-12T09:26:44.216Z,1.60
2017-12-12T09:28:46.235Z,1.60
2017-12-12T09:30:47.247Z,1.60
2017-12-12T09:32:48.502Z,1.60
2017-12-12T09:34:49.713Z,1.60
2017-12-12T09:36:50.731Z,1.60
2017-12-12T09:38:51.771Z,1.60
2017-12-12T09:40:52.990Z,1.70
2017-12-12T09:42:54.003Z,1.70
2017-12-12T09:44:54.996Z,1.70
2017-12-12T09:46:55.989Z,1.70
2017-12-12T09:48:56.992Z,1.80
2017-12-12T09:50:59.907Z,1.80
2017-12-12T09:53:02.044Z,1.80
2017-12-12T09:55:03.331Z,1.80
2017-12-12T09:57:04.964Z,1.90
2017-12-12T09:59:06.509Z,1.90
2017-12-12T10:01:08.775Z,1.90
2017-12-12T10:03:10.793Z,1.90
2017-12-12T10:05:11.845Z,2.00
2017-12-12T10:07:12.815Z,2.00
2017-12-12T10:09:14.993Z,2.00
2017-12-12T10:11:16.261Z,2.00
2017-12-12T10:13:17.230Z,2.00
2017-12-12T10:15:18.243Z,2.00
2017-12-12T10:17:19.273Z,2.10
2017-12-12T10:19:20.987Z,2.10
2017-12-12T10:21:22.352Z,2.00
2017-12-12T10:23:23.364Z,2.00
2017-12-12T10:25:24.360Z,2.00
2017-12-12T10:27:25.361Z,2.00
2017-12-12T10:29:26.467Z,2.00
2017-12-12T10:31:27.783Z,2.00
2017-12-12T10:33:29.301Z,2.00
2017-12-12T10:35:31.014Z,2.10
2017-12-12T10:37:32.864Z,2.10
2017-12-12T10:39:33.957Z,2.10
2017-12-12T10:41:34.993Z,2.10
2017-12-12T10:43:36.646Z,2.10
2017-12-12T10:45:38.050Z,2.10
2017-12-12T10:47:39.505Z,2.20
2017-12-12T10:49:40.582Z,2.20
2017-12-12T10:51:42.312Z,2.20
2017-12-12T10:53:43.307Z,2.20
2017-12-12T10:55:44.312Z,2.20
2017-12-12T10:57:45.349Z,2.10
2017-12-12T10:59:46.580Z,2.20
2017-12-12T11:01:49.167Z,2.20
2017-12-12T11:03:51.552Z,2.20
2017-12-12T11:05:52.880Z,2.20
2017-12-12T11:07:53.948Z,2.20
2017-12-12T11:09:54.987Z,2.20
2017-12-12T11:11:56.070Z,2.30
2017-12-12T11:13:58.113Z,2.30
2017-12-12T11:15:59.151Z,2.30
2017-12-12T11:18:00.516Z,2.30
2017-12-12T11:20:01.498Z,2.30
2017-12-12T11:22:03.404Z,2.20
2017-12-12T11:24:04.428Z,2.20
2017-12-12T11:26:05.452Z,2.20
2017-12-12T11:28:06.451Z,2.30
2017-12-12T11:30:07.706Z,2.30
2017-12-12T11:32:08.721Z,2.30
2017-12-12T11:34:11.871Z,2.30
2017-12-12T11:36:13.109Z,2.30
2017-12-12T11:38:14.205Z,2.20
2017-12-12T11:40:17.097Z,2.30
2017-12-12T11:42:19.208Z,2.20
2017-12-12T11:44:20.172Z,2.20
2017-12-12T11:46:22.968Z,2.20
2017-12-12T11:48:23.968Z,2.20
2017-12-12T11:50:25.794Z,2.20
2017-12-12T11:52:26.837Z,2.20
2017-12-12T11:54:27.934Z,2.30
2017-12-12T11:56:28.990Z,2.20
2017-12-12T11:58:30.115Z,2.20
2017-12-12T12:00:31.147Z,2.20
2017-12-12T12:02:32.169Z,2.20
2017-12-12T12:04:33.228Z,2.10
2017-12-12T12:06:34.267Z,2.10
2017-12-12T12:08:35.401Z,2.10
2017-12-12T12:10:36.400Z,2.10
2017-12-12T12:12:37.427Z,2.10
2017-12-12T12:14:38.402Z,2.10
2017-12-12T12:16:39.382Z,2.20
2017-12-12T12:18:40.383Z,2.10
2017-12-12T12:20:41.404Z,2.20
2017-12-12T12:22:42.384Z,2.20
2017-12-12T12:24:43.572Z,2.10
2017-12-12T12:26:44.583Z,2.10
2017-12-12T12:28:45.776Z,2.10
2017-12-12T12:30:47.002Z,2.10
2017-12-12T12:32:47.992Z,2.10
2017-12-12T12:34:49.105Z,2.10
2017-12-12T12:36:50.122Z,2.10
2017-12-12T12:38:51.114Z,2.00
2017-12-12T12:40:52.071Z,2.00
2017-12-12T12:42:53.063Z,2.00
2017-12-12T12:44:54.068Z,1.90
2017-12-12T12:46:55.759Z,1.90
2017-12-12T12:48:56.786Z,1.90
2017-12-12T12:50:57.781Z,1.90
2017-12-12T12:52:58.775Z,1.90
2017-12-12T12:54:59.755Z,1.80
2017-12-12T12:57:00.735Z,1.80
2017-12-12T12:59:01.692Z,1.80
2017-12-12T13:01:02.818Z,1.80
2017-12-12T13:03:03.847Z,1.80
2017-12-12T13:05:05.409Z,1.80
2017-12-12T13:07:06.457Z,1.70
2017-12-12T13:09:07.636Z,1.80
2017-12-12T13:11:08.651Z,1.80
2017-12-12T13:13:09.665Z,1.80
2017-12-12T13:15:11.067Z,1.80
2017-12-12T13:17:12.855Z,1.80
2017-12-12T13:19:13.939Z,1.80
2017-12-12T13:21:15.077Z,1.80
2017-12-12T13:23:16.080Z,1.90
2017-12-12T13:25:17.981Z,1.90
2017-12-12T13:27:19.301Z,1.80
2017-12-12T13:29:20.373Z,1.90
2017-12-12T13:31:21.332Z,1.90
2017-12-12T13:33:22.307Z,1.90
2017-12-12T13:35:23.320Z,2.00
2017-12-12T13:37:24.327Z,2.00
2017-12-12T13:39:26.064Z,2.00
2017-12-12T13:41:27.099Z,2.00
2017-12-12T13:43:28.882Z,2.00
2017-12-12T13:45:30.107Z,2.10
2017-12-12T13:47:31.085Z,2.10
2017-12-12T13:49:32.094Z,2.10
2017-12-12T13:51:33.284Z,2.10
2017-12-12T13:53:34.303Z,2.10
2017-12-12T13:55:35.403Z,2.10
2017-12-12T13:57:37.576Z,2.10
2017-12-12T13:59:38.798Z,2.10
2017-12-12T14:01:39.890Z,2.00
2017-12-12T14:03:40.934Z,2.10
2017-12-12T14:05:43.084Z,2.10
2017-12-12T14:07:44.953Z,2.10
2017-12-12T14:09:45.923Z,2.00
2017-12-12T14:11:46.980Z,2.10
2017-12-12T14:13:48.197Z,2.10
2017-12-12T14:15:49.264Z,2.00
2017-12-12T14:17:50.538Z,2.00
2017-12-12T14:19:51.617Z,2.00
2017-12-12T14:21:52.604Z,2.00
2017-12-12T14:23:54.514Z,2.00
2017-12-12T14:25:56.247Z,2.00
2017-12-12T14:27:58.612Z,2.00
2017-12-12T14:29:59.719Z,2.00
2017-12-12T14:32:01.023Z,2.00
2017-12-12T14:34:02.064Z,2.00
2017-12-12T14:36:03.203Z,2.00
2017-12-12T14:38:04.468Z,2.00
2017-12-12T14:40:05.600Z,2.00
2017-12-12T14:42:06.636Z,2.00
2017-12-12T14:44:07.697Z,2.00
2017-12-12T14:46:08.776Z,2.00
2017-12-12T14:48:10.527Z,1.90
2017-12-12T14:50:11.539Z,1.90
2017-12-12T14:52:12.535Z,1.90
2017-12-12T14:54:14.411Z,1.90
2017-12-12T14:56:16.653Z,1.90
2017-12-12T14:58:17.655Z,2.00
2017-12-12T15:00:18.728Z,1.90
2017-12-12T15:02:19.696Z,1.90
2017-12-12T15:04:20.707Z,1.80
2017-12-12T15:06:23.757Z,1.80
2017-12-12T15:08:24.885Z,1.70
2017-12-12T15:10:26.584Z,1.70
2017-12-12T15:12:27.595Z,1.70
2017-12-12T15:14:29.313Z,1.70
2017-12-12T15:16:30.491Z,1.70
2017-12-12T15:18:31.489Z,1.70
2017-12-12T15:20:32.670Z,1.70
2017-12-12T15:22:33.687Z,1.80
2017-12-12T15:24:34.830Z,1.80
2017-12-12T15:26:35.992Z,1.80
2017-12-12T15:28:37.287Z,1.80
2017-12-12T15:30:38.709Z,1.80
2017-12-12T15:32:39.776Z,1.80
2017-12-12T15:34:40.786Z,1.90
2017-12-12T15:36:41.781Z,1.80
2017-12-12T15:38:42.913Z,1.90
2017-12-12T15:40:43.978Z,1.80
2017-12-12T15:42:44.944Z,1.80
2017-12-12T15:44:45.927Z,1.90
2017-12-12T15:46:46.936Z,1.80
2017-12-12T15:48:48.029Z,1.80
2017-12-12T15:50:49.302Z,1.80
2017-12-12T15:52:50.431Z,1.80
2017-12-12T15:54:51.469Z,1.80
2017-12-12T15:56:52.433Z,1.80
2017-12-12T15:58:53.496Z,1.80
2017-12-12T16:00:54.519Z,1.80
2017-12-12T16:02:55.633Z,1.80
2017-12-12T16:04:57.280Z,1.80
2017-12-12T16:06:58.398Z,1.80
2017-12-12T16:08:59.472Z,1.80
2017-12-12T16:11:00.427Z,1.80
2017-12-12T16:13:02.188Z,1.90
2017-12-12T16:15:03.215Z,1.80
2017-12-12T16:17:04.227Z,1.90
2017-12-12T16:19:05.331Z,1.90
2017-12-12T16:21:07.221Z,1.90
2017-12-12T16:23:08.238Z,1.90
2017-12-12T16:25:09.618Z,1.90
2017-12-12T16:27:11.437Z,1.90
2017-12-12T16:29:12.428Z,1.90
2017-12-12T16:31:13.403Z,1.90
2017-12-12T16:33:14.412Z,2.00
2017-12-12T16:35:16.136Z,2.00
2017-12-12T16:37:18.148Z,2.00
2017-12-12T16:39:20.067Z,2.00
2017-12-12T16:41:21.071Z,2.00
2017-12-12T16:43:22.080Z,2.00
2017-12-12T16:45:23.157Z,2.00
2017-12-12T16:47:24.208Z,2.00
2017-12-12T16:49:25.342Z,2.00
2017-12-12T16:51:26.379Z,2.00
2017-12-12T16:53:27.380Z,2.00
2017-12-12T16:55:28.414Z,2.10
2017-12-12T16:57:29.428Z,2.10
2017-12-12T16:59:31.221Z,2.10
2017-12-12T17:01:32.319Z,2.00
2017-12-12T17:03:33.300Z,2.10
2017-12-12T17:05:34.337Z,2.10
2017-12-12T17:07:35.394Z,2.10
2017-12-12T17:09:37.178Z,2.10
2017-12-12T17:11:38.935Z,2.10
2017-12-12T17:13:39.923Z,2.10
2017-12-12T17:15:40.883Z,2.10
2017-12-12T17:17:41.959Z,2.20
2017-12-12T17:19:42.984Z,2.20
2017-12-12T17:21:44.023Z,2.20
2017-12-12T17:23:44.976Z,2.20
2017-12-12T17:25:45.960Z,2.20
2017-12-12T17:27:47.133Z,2.20
2017-12-12T17:29:48.107Z,2.20
2017-12-12T17:31:49.210Z,2.20
2017-12-12T17:33:50.336Z,2.20
2017-12-12T17:35:51.391Z,2.20
2017-12-12T17:37:52.375Z,2.20
2017-12-12T17:39:53.334Z,2.20
2017-12-12T17:41:54.464Z,2.20
2017-12-12T17:43:55.427Z,2.20
2017-12-12T17:45:56.414Z,2.20
2017-12-12T17:47:57.499Z,2.20
2017-12-12T17:49:58.550Z,2.20
2017-12-12T17:52:00.485Z,2.20
2017-12-12T17:54:01.439Z,2.20
2017-12-12T17:56:02.455Z,2.20
2017-12-12T17:58:03.688Z,2.20
2017-12-12T18:00:04.717Z,2.20
2017-12-12T18:02:05.783Z,2.20
2017-12-12T18:04:06.823Z,2.20
2017-12-12T18:06:07.836Z,2.20
2017-12-12T18:08:09.566Z,2.20
2017-12-12T18:10:10.568Z,2.20
2017-12-12T18:12:11.588Z,2.20
2017-12-12T18:14:13.318Z,2.20
2017-12-12T18:16:14.302Z,2.20
2017-12-12T18:18:15.418Z,2.20
2017-12-12T18:20:16.382Z,2.20
2017-12-12T18:22:17.530Z,2.20
2017-12-12T18:24:18.517Z,2.20
2017-12-12T18:26:20.338Z,2.20
2017-12-12T18:28:22.167Z,2.20
2017-12-12T18:30:24.119Z,2.20
2017-12-12T18:32:25.138Z,2.20
2017-12-12T18:34:27.323Z,2.20
2017-12-12T18:36:28.304Z,2.20
2017-12-12T18:38:29.307Z,2.20
2017-12-12T18:40:30.303Z,2.20
2017-12-12T18:42:31.267Z,2.20
2017-12-12T18:44:32.237Z,2.20
2017-12-12T18:46:34.236Z,2.20
2017-12-12T18:48:35.275Z,2.20
2017-12-12T18:50:36.303Z,2.20
2017-12-12T18:52:38.642Z,2.20
2017-12-12T18:54:39.710Z,2.10
2017-12-12T18:56:40.692Z,2.20
2017-12-12T18:58:41.712Z,2.20
2017-12-12T19:00:42.728Z,2.20
2017-12-12T19:02:43.712Z,2.20
2017-12-12T19:04:45.764Z,2.20
2017-12-12T19:06:46.908Z,2.20
2017-12-12T19:08:47.867Z,2.20
2017-12-12T19:10:48.961Z,2.20
2017-12-12T19:12:51.091Z,2.20
2017-12-12T19:14:52.250Z,2.20
2017-12-12T19:16:53.758Z,2.20
2017-12-12T19:18:54.969Z,2.20
2017-12-12T19:20:56.251Z,2.20
2017-12-12T19:22:58.530Z,2.20
2017-12-12T19:25:00.520Z,2.20
2017-12-12T19:27:01.701Z,2.20
2017-12-12T19:29:02.895Z,2.20
2017-12-12T19:31:04.209Z,2.20
2017-12-12T19:33:05.452Z,2.20
2017-12-12T19:35:09.009Z,2.20
2017-12-12T19:37:10.287Z,2.10
2017-12-12T19:39:11.493Z,2.10
2017-12-12T19:41:14.085Z,2.10
2017-12-12T19:43:15.125Z,2.10
2017-12-12T19:45:17.026Z,2.10
2017-12-12T19:47:18.198Z,2.10
2017-12-12T19:49:19.351Z,2.10
2017-12-12T19:51:20.483Z,2.10
2017-12-12T19:53:21.597Z,2.10
2017-12-12T19:55:22.817Z,2.10
2017-12-12T19:57:24.886Z,2.10
2017-12-12T19:59:26.311Z,2.10
2017-12-12T20:01:36.597Z,2.10
2017-12-12T20:03:37.773Z,2.10
2017-12-12T20:05:39.847Z,2.10
2017-12-12T20:07:41.069Z,2.10
2017-12-12T20:09:42.620Z,2.10
2017-12-12T20:11:43.803Z,2.00
2017-12-12T20:13:44.837Z,2.00
2017-12-12T20:15:45.951Z,2.00
2017-12-12T20:17:47.266Z,2.00
2017-12-12T20:19:48.721Z,1.90
2017-12-12T20:21:50.323Z,1.90
2017-12-12T20:23:51.332Z,1.90
2017-12-12T20:25:55.321Z,1.80
2017-12-12T20:27:56.627Z,1.80
2017-12-12T20:29:57.655Z,1.80
2017-12-12T20:31:58.780Z,1.70
2017-12-12T20:34:00.738Z,1.70
2017-12-12T20:36:02.213Z,1.70
2017-12-12T20:38:03.546Z,1.60
2017-12-12T20:40:04.775Z,1.60
2017-12-12T20:42:05.932Z,1.60
2017-12-12T20:44:07.107Z,1.60
2017-12-12T20:46:08.140Z,1.60
2017-12-12T20:48:09.127Z,1.60
2017-12-12T20:50:10.728Z,1.70
2017-12-12T20:52:11.750Z,1.70
2017-12-12T20:54:12.743Z,1.70
2017-12-12T20:56:13.876Z,1.70
2017-12-12T20:58:15.227Z,1.80
2017-12-12T21:00:16.469Z,1.80
2017-12-12T21:02:17.546Z,1.80
2017-12-12T21:04:18.545Z,1.80
2017-12-12T21:06:19.563Z,1.80
2017-12-12T21:08:20.576Z,1.80
2017-12-12T21:10:21.637Z,1.80
2017-12-12T21:12:22.642Z,1.90
2017-12-12T21:14:23.611Z,1.90
2017-12-12T21:16:24.615Z,1.90
2017-12-12T21:18:25.707Z,1.90
2017-12-12T21:20:26.676Z,1.90
2017-12-12T21:22:27.647Z,1.90
2017-12-12T21:24:28.672Z,1.90
2017-12-12T21:26:29.763Z,1.90
2017-12-12T21:28:30.767Z,1.90
2017-12-12T21:30:31.795Z,1.90
2017-12-12T21:32:32.812Z,1.90
2017-12-12T21:34:33.879Z,1.90
2017-12-12T21:36:34.913Z,1.80
2017-12-12T21:38:35.935Z,1.80
2017-12-12T21:40:36.964Z,1.90
2017-12-12T21:42:37.964Z,1.90
2017-12-12T21:44:38.956Z,1.80
2017-12-12T21:46:39.990Z,1.80
2017-12-12T21:48:41.065Z,1.90
2017-12-12T21:50:42.084Z,1.90
2017-12-12T21:52:43.144Z,1.80
2017-12-12T21:54:44.317Z,1.80
2017-12-12T21:56:46.184Z,1.80
2017-12-12T21:58:47.486Z,1.90
2017-12-12T22:00:48.593Z,1.90
2017-12-12T22:02:49.849Z,1.90
2017-12-12T22:04:51.073Z,1.90
2017-12-12T22:06:52.119Z,1.80
2017-12-12T22:08:53.823Z,1.70
2017-12-12T22:10:55.374Z,1.70
2017-12-12T22:12:56.549Z,1.70
2017-12-12T22:14:57.531Z,1.60
2017-12-12T22:16:59.380Z,1.50
2017-12-12T22:19:00.557Z,1.40
2017-12-12T22:21:02.268Z,1.40
2017-12-12T22:23:04.779Z,1.40
2017-12-12T22:25:05.906Z,1.30
2017-12-12T22:27:07.370Z,1.30
2017-12-12T22:29:08.414Z,1.30
2017-12-12T22:31:09.399Z,1.40
2017-12-12T22:33:11.812Z,1.50
2017-12-12T22:35:12.883Z,1.50
2017-12-12T22:37:14.014Z,1.60
2017-12-12T22:39:15.099Z,1.60
2017-12-12T22:41:16.080Z,1.60
2017-12-12T22:43:17.059Z,1.60
2017-12-12T22:45:18.236Z,1.70
2017-12-12T22:47:19.796Z,1.70
2017-12-12T22:49:20.956Z,1.70
2017-12-12T22:51:23.012Z,1.70
2017-12-12T22:53:24.122Z,1.70
2017-12-12T22:55:25.132Z,1.70
2017-12-12T22:57:26.124Z,1.70
2017-12-12T22:59:27.104Z,1.60
2017-12-12T23:01:28.313Z,1.60
2017-12-12T23:03:29.283Z,1.50
2017-12-12T23:05:30.302Z,1.50
2017-12-12T23:07:32.325Z,1.40
2017-12-12T23:09:33.424Z,1.40
2017-12-12T23:11:34.565Z,1.30
2017-12-12T23:13:35.593Z,1.30
2017-12-12T23:15:36.699Z,1.30
2017-12-12T23:17:37.891Z,1.30
2017-12-12T23:19:39.350Z,1.30
2017-12-12T23:21:40.560Z,1.30
2017-12-12T23:23:41.557Z,1.30
2017-12-12T23:25:42.530Z,1.30
2017-12-12T23:27:43.531Z,1.30
2017-12-12T23:29:44.588Z,1.30
2017-12-12T23:31:46.338Z,1.20
2017-12-12T23:33:47.328Z,1.20
2017-12-12T23:35:48.337Z,1.20
2017-12-12T23:37:49.317Z,1.20
2017-12-12T23:39:51.087Z,1.30
2017-12-12T23:41:52.603Z,1.30
2017-12-12T23:43:53.695Z,1.30
2017-12-12T23:45:54.675Z,1.40
2017-12-12T23:47:55.688Z,1.40
2017-12-12T23:49:56.655Z,1.40
2017-12-12T23:51:57.700Z,1.50
2017-12-12T23:53:58.816Z,1.50
2017-12-12T23:55:59.879Z,1.50
2017-12-12T23:58:01.247Z,1.60
